Chase, Canada
Current Conditions -  °F | °C
As of 1:00 PM on Monday 24 Nov 2014 (Local Time) from CYKA Reporting Station
Overcast Overcast  
Wind Chill: 26°   Ceiling: 9000
Heat Index: 36°   Visibility: 30mi
Dew Point: 32°   Wind: 16mph
Humidity: 87%   Direction: 100°E
Pressure: 30.08"   Gusts: NA
Location:  50.82°N, 119.68°W
Report Text: CYKA 242100Z 10014KT 30SM FEW008 FEW020 SCT050 BKN090 OVC140 02/M00 A3008 RMK SF1ST1SC4AC2AC2 SF TR ST TR SLP204
Loading
Personal Weather Stations






























Interactive Weather Map New forecast layout! Learn more

10-Day Weather Forecast

Advertisements
Track Severe Weather on mobile